Point Hope, AK (99766)

12:18 AM AKDT on August 23, 2017 (GMT -0800)
Point Hope | | Change Station
Active Advisory: High Surf Advisory Active Notice: High Surf Advisory

Elev 13 ft 68.35 °N, 166.80 °W | Updated 9 minutes ago

Overcast
Overcast
46 °F
Feels Like 40 °F
N
17
Wind Variable Wind from NNE

Today
High -- | Low -- °F
--% Chance of Precip.
Yesterday
High -- | Low -- °F
Precip. -- in
Pressure 29.72 in
Visibility 10.0 miles
Clouds Mostly Cloudy 1300 ft
Overcast 3600 ft
Windchill 40 °F
Dew Point 43 °F
Humidity 87%
Rainfall 0.00 in
Snow Depth Not available.
6:58 AM 11:17 PM
Waxing Crescent, 3% visible
SPECI PAPO 230809Z AUTO 02015KT 10SM BKN013 OVC036 08/06 A2972 RMK AO2
Pressure 29.72 in
Visibility 10.0 miles
Clouds Mostly Cloudy 1300 ft
Overcast 3600 ft
Windchill 40 °F
Dew Point 43 °F
Humidity 87%
Rainfall 0.00 in
Snow Depth Not available.
6:58 AM 11:17 PM
Waxing Crescent, 3% visible
SPECI PAPO 230809Z AUTO 02015KT 10SM BKN013 OVC036 08/06 A2972 RMK AO2

Get Your Daily Forecast Email!

Thanks for signing up!

Be on the lookout for a verification email in your inbox.

You'll start receiving severe weather alerts in your inbox..

×

10-Day Weather Forecast

Almanac

Astronomy

Aug. 23, 2017 Rise Set
Actual Time
Civil Twilight
Nautical Twilight
Astronomical Twilight
Moon
Length of Visible Light
Length of Day
Tomorrow will be .
, % of the Moon is Illuminated

Today's Extremes

State Highs State Lows

Community

WunderPhotos

Category 6

Welcome to Category 6. This is the collective home for Weather Underground's featured writeups by Dr. Jeff Masters (right), Bob Henson (left), Chris Burt, and other regular contributors.

Nearby

Air Quality

  Air Quality AQ Index Pollutant
Not available.

Snow Depth

Station Depth Elevation

Earthquake Activity

City Distance Mag. Time & Date
Minimum magnitude displayed is 2.5.

Coastal Water Temperatures

Place Temperature

Stations

Nearby Weather Stations

Station Location Temp. Windchill Dew Point Humidity Wind Precip. Elev Updated Type
                   

Watches & Warnings

High Surf Advisory
Issued: 10:22 PM AKDT Aug. 22, 2017 – National Weather Service

... High surf advisory now in effect until 6 am akdt Wednesday...

* location... from Cape Espenberg west to the Bering Strait.

* Waves and surf... 4 to 7 feet offshore breaking nearshore with
runup above the normal high tide line.

* Timing... northwest winds 20 to 30 mph will diminish overnight
and seas will subside.

* Impacts... waves breaking near shore and runup will create
dangerous conditions. Some minor erosion is possible.

Precautionary/preparedness actions...

A high surf advisory means that localized beach erosion is
expected. Precautions should be taken to protect property.